createdAt,value
2018-08-11T00:00:48.115Z,18.924255
2018-08-11T00:02:04.030Z,18.914185
2018-08-11T00:03:20.925Z,18.974609
2018-08-11T00:04:36.847Z,19.065247
2018-08-11T00:05:52.760Z,19.035034
2018-08-11T00:07:08.690Z,18.883972
2018-08-11T00:08:24.593Z,19.004822
2018-08-11T00:09:40.542Z,19.065247
2018-08-11T00:10:56.483Z,19.075317
2018-08-11T00:12:12.412Z,18.974609
2018-08-11T00:13:28.287Z,18.944397
2018-08-11T00:14:44.166Z,18.964539
2018-08-11T00:16:00.071Z,18.894043
2018-08-11T00:17:16.063Z,18.894043
2018-08-11T00:18:31.974Z,18.793335
2018-08-11T00:19:47.925Z,18.571777
2018-08-11T00:21:03.862Z,18.612061
2018-08-11T00:22:20.878Z,18.672485
2018-08-11T00:23:36.809Z,18.531494
2018-08-11T00:24:52.782Z,18.531494
2018-08-11T00:26:08.620Z,18.632202
2018-08-11T00:27:24.597Z,18.60199
2018-08-11T00:28:40.490Z,18.450928
2018-08-11T00:29:56.374Z,18.430786
2018-08-11T00:31:12.288Z,18.420715
2018-08-11T00:32:28.243Z,18.279724
2018-08-11T00:33:44.178Z,18.22937
2018-08-11T00:35:00.071Z,18.340149
2018-08-11T00:36:15.995Z,18.370361
2018-08-11T00:37:31.927Z,18.279724
2018-08-11T00:38:48.815Z,18.22937
2018-08-11T00:40:04.707Z,18.088379
2018-08-11T00:41:20.658Z,18.118591
2018-08-11T00:42:36.573Z,18.088379
2018-08-11T00:43:52.534Z,18.027954
2018-08-11T00:45:08.533Z,18.027954
2018-08-11T00:46:24.487Z,18.189087
2018-08-11T00:47:40.443Z,18.259583
2018-08-11T00:48:56.429Z,18.22937
2018-08-11T00:50:12.331Z,18.330078
2018-08-11T00:51:28.307Z,18.420715
2018-08-11T00:52:44.229Z,18.460999
2018-08-11T00:54:00.172Z,18.390503
2018-08-11T00:55:16.157Z,18.340149
2018-08-11T00:56:32.065Z,18.209229
2018-08-11T00:57:48.001Z,18.048096
2018-08-11T00:59:03.940Z,18.108521
2018-08-11T01:00:19.901Z,17.927246
2018-08-11T01:01:35.826Z,17.937317
2018-08-11T01:02:51.731Z,17.947388
2018-08-11T01:04:07.710Z,17.947388
2018-08-11T01:05:23.628Z,17.997742
2018-08-11T01:06:39.522Z,17.9776
2018-08-11T01:07:55.450Z,17.876892
2018-08-11T01:09:11.406Z,17.745972
2018-08-11T01:10:27.313Z,17.705688
2018-08-11T01:11:43.243Z,17.786255
2018-08-11T01:12:59.258Z,17.836609
2018-08-11T01:14:15.258Z,17.776184
2018-08-11T01:15:31.152Z,17.776184
2018-08-11T01:16:47.083Z,17.907104
2018-08-11T01:18:02.987Z,18.027954
2018-08-11T01:19:18.925Z,17.876892
2018-08-11T01:20:34.869Z,17.947388
2018-08-11T01:21:50.807Z,17.997742
2018-08-11T01:23:06.715Z,18.058167
2018-08-11T01:24:22.627Z,17.997742
2018-08-11T01:25:38.529Z,17.897034
2018-08-11T01:26:54.527Z,17.947388
2018-08-11T01:28:10.465Z,17.897034
2018-08-11T01:29:27.366Z,17.776184
2018-08-11T01:30:43.256Z,17.72583
2018-08-11T01:31:59.138Z,17.705688
2018-08-11T01:33:15.018Z,17.59491
2018-08-11T01:34:30.964Z,17.60498
2018-08-11T01:35:46.869Z,17.645264
2018-08-11T01:37:02.802Z,17.685547
2018-08-11T01:38:18.685Z,17.745972
2018-08-11T01:39:34.621Z,17.776184
2018-08-11T01:40:50.599Z,17.715759
2018-08-11T01:42:06.489Z,17.383423
2018-08-11T01:43:22.427Z,17.171936
2018-08-11T01:44:38.329Z,17.192078
2018-08-11T01:45:54.224Z,17.22229
2018-08-11T01:47:10.176Z,17.312927
2018-08-11T01:48:26.050Z,17.413635
2018-08-11T01:49:41.953Z,17.564697
2018-08-11T01:50:57.853Z,17.645264
2018-08-11T01:52:13.799Z,17.645264
2018-08-11T01:53:29.678Z,17.534485
2018-08-11T01:54:45.565Z,17.443848
2018-08-11T01:56:02.464Z,17.463989
2018-08-11T01:57:18.374Z,17.494202
2018-08-11T01:58:34.326Z,17.443848
2018-08-11T01:59:50.224Z,17.504272
2018-08-11T02:01:06.156Z,17.645264
2018-08-11T02:02:22.074Z,17.544556
2018-08-11T02:03:38.040Z,17.574768
2018-08-11T02:04:53.927Z,17.60498
2018-08-11T02:06:09.845Z,17.685547
2018-08-11T02:07:25.778Z,17.655334
2018-08-11T02:08:41.767Z,17.715759
2018-08-11T02:09:57.659Z,17.60498
2018-08-11T02:11:13.599Z,17.59491
2018-08-11T02:12:29.443Z,17.504272
2018-08-11T02:13:45.389Z,17.322998
2018-08-11T02:15:01.308Z,17.322998
2018-08-11T02:16:17.238Z,17.393494
2018-08-11T02:17:33.102Z,17.504272
2018-08-11T02:18:49.000Z,17.47406
2018-08-11T02:20:04.882Z,17.494202
2018-08-11T02:21:20.752Z,17.504272
2018-08-11T02:22:36.648Z,17.534485
2018-08-11T02:23:52.632Z,17.564697
2018-08-11T02:25:08.546Z,17.564697
2018-08-11T02:26:24.444Z,17.655334
2018-08-11T02:27:40.378Z,17.625122
2018-08-11T02:28:56.376Z,17.60498
2018-08-11T02:30:12.252Z,17.60498
2018-08-11T02:31:28.122Z,17.59491
2018-08-11T02:32:44.023Z,17.574768
2018-08-11T02:33:59.963Z,17.47406
2018-08-11T02:35:15.886Z,17.574768
2018-08-11T02:36:31.792Z,17.645264
2018-08-11T02:37:47.703Z,17.645264
2018-08-11T02:39:03.712Z,17.574768
2018-08-11T02:40:20.025Z,17.574768
2018-08-11T02:41:35.930Z,17.494202
2018-08-11T02:42:51.876Z,17.564697
2018-08-11T02:44:07.741Z,17.60498
2018-08-11T02:45:23.687Z,17.574768
2018-08-11T02:46:39.562Z,17.59491
2018-08-11T02:47:55.524Z,17.655334
2018-08-11T02:49:11.436Z,17.59491
2018-08-11T02:50:27.355Z,17.645264
2018-08-11T02:51:43.264Z,17.524414
2018-08-11T02:52:59.158Z,17.564697
2018-08-11T02:54:15.040Z,17.564697
2018-08-11T02:55:30.967Z,17.494202
2018-08-11T02:56:46.904Z,17.524414
2018-08-11T02:58:02.771Z,17.625122
2018-08-11T02:59:18.668Z,17.675476
2018-08-11T03:00:34.652Z,17.544556
2018-08-11T03:01:50.549Z,17.625122
2018-08-11T03:03:06.438Z,17.645264
2018-08-11T03:04:22.355Z,17.59491
2018-08-11T03:05:38.245Z,17.59491
2018-08-11T03:06:54.160Z,17.544556
2018-08-11T03:08:10.064Z,17.544556
2018-08-11T03:09:25.971Z,17.534485
2018-08-11T03:10:41.871Z,17.443848
2018-08-11T03:11:57.815Z,17.423706
2018-08-11T03:13:13.701Z,17.282715
2018-08-11T03:14:29.683Z,17.312927
2018-08-11T03:15:45.584Z,17.373352
2018-08-11T03:17:01.503Z,17.463989
2018-08-11T03:18:17.394Z,17.47406
2018-08-11T03:19:33.268Z,17.504272
2018-08-11T03:20:49.151Z,17.322998
2018-08-11T03:22:05.096Z,17.383423
2018-08-11T03:23:21.029Z,17.463989
2018-08-11T03:24:36.989Z,17.494202
2018-08-11T03:25:52.890Z,17.504272
2018-08-11T03:27:08.856Z,17.534485
2018-08-11T03:28:25.769Z,17.47406
2018-08-11T03:29:41.645Z,17.413635
2018-08-11T03:30:57.543Z,17.34314
2018-08-11T03:32:13.409Z,17.282715
2018-08-11T03:33:29.344Z,17.443848
2018-08-11T03:34:45.215Z,17.47406
2018-08-11T03:36:01.178Z,17.47406
2018-08-11T03:37:17.060Z,17.413635
2018-08-11T03:38:32.964Z,17.22229
2018-08-11T03:39:48.840Z,17.131653
2018-08-11T03:41:04.761Z,17.020874
2018-08-11T03:42:20.663Z,17.020874
2018-08-11T03:43:36.567Z,17.09137
2018-08-11T03:44:52.485Z,17.121582
2018-08-11T03:46:08.470Z,17.161865
2018-08-11T03:47:24.233Z,17.202148
2018-08-11T03:48:40.129Z,17.10144
2018-08-11T03:49:56.047Z,17.171936
2018-08-11T03:51:11.952Z,17.272644
2018-08-11T03:52:27.854Z,17.322998
2018-08-11T03:53:43.739Z,17.494202
2018-08-11T03:54:59.675Z,17.494202
2018-08-11T03:56:15.565Z,17.443848
2018-08-11T03:57:31.471Z,17.504272
2018-08-11T03:58:47.385Z,17.655334
2018-08-11T04:00:03.322Z,17.504272
2018-08-11T04:01:19.338Z,17.534485
2018-08-11T04:02:35.238Z,17.544556
2018-08-11T04:03:51.121Z,17.544556
2018-08-11T04:05:07.033Z,17.524414
2018-08-11T04:06:22.940Z,17.443848
2018-08-11T04:07:38.902Z,17.60498
2018-08-11T04:08:54.791Z,17.645264
2018-08-11T04:10:10.652Z,17.524414
2018-08-11T04:11:26.543Z,17.423706
2018-08-11T04:12:42.511Z,17.494202
2018-08-11T04:13:58.393Z,17.60498
2018-08-11T04:15:14.272Z,17.534485
2018-08-11T04:16:30.159Z,17.312927
2018-08-11T04:17:46.280Z,17.322998
2018-08-11T04:19:02.205Z,17.443848
2018-08-11T04:20:18.085Z,17.494202
2018-08-11T04:21:33.971Z,17.574768
2018-08-11T04:22:50.093Z,17.625122
2018-08-11T04:24:06.002Z,17.625122
2018-08-11T04:25:21.886Z,17.393494
2018-08-11T04:26:37.765Z,17.413635
2018-08-11T04:27:53.680Z,17.504272
2018-08-11T04:29:09.598Z,17.413635
2018-08-11T04:30:25.471Z,17.373352
2018-08-11T04:31:41.365Z,17.34314
2018-08-11T04:32:57.313Z,17.34314
2018-08-11T04:34:13.245Z,17.34314
2018-08-11T04:35:29.291Z,17.35321
2018-08-11T04:36:45.244Z,17.443848
2018-08-11T04:38:01.135Z,17.35321
2018-08-11T04:39:17.043Z,17.272644
2018-08-11T04:40:33.018Z,17.302856
2018-08-11T04:41:48.901Z,17.443848
2018-08-11T04:43:04.798Z,17.383423
2018-08-11T04:44:20.705Z,17.463989
2018-08-11T04:45:36.576Z,17.524414
2018-08-11T04:46:52.498Z,17.413635
2018-08-11T04:48:08.383Z,17.35321
2018-08-11T04:49:24.313Z,17.423706
2018-08-11T04:50:40.258Z,17.524414
2018-08-11T04:51:56.145Z,17.544556
2018-08-11T04:53:12.066Z,17.59491
2018-08-11T04:54:27.997Z,17.625122
2018-08-11T04:55:43.883Z,17.685547
2018-08-11T04:56:59.821Z,17.786255
2018-08-11T04:58:15.768Z,17.786255
2018-08-11T04:59:31.672Z,17.816467
2018-08-11T05:00:47.589Z,17.937317
2018-08-11T05:02:03.456Z,17.937317
2018-08-11T05:03:20.401Z,17.756042
2018-08-11T05:04:36.367Z,17.685547
2018-08-11T05:05:52.262Z,17.756042
2018-08-11T05:07:08.185Z,17.72583
2018-08-11T05:08:24.094Z,17.776184
2018-08-11T05:09:39.991Z,17.60498
2018-08-11T05:10:55.925Z,17.564697
2018-08-11T05:12:12.002Z,17.625122
2018-08-11T05:13:27.911Z,17.786255
2018-08-11T05:14:44.867Z,17.907104
2018-08-11T05:16:00.814Z,17.967529
2018-08-11T05:17:16.808Z,17.997742
2018-08-11T05:18:32.729Z,17.9776
2018-08-11T05:19:48.709Z,17.85675
2018-08-11T05:21:04.626Z,17.85675
2018-08-11T05:22:20.533Z,17.786255
2018-08-11T05:23:36.450Z,17.907104
2018-08-11T05:24:52.400Z,18.048096
2018-08-11T05:26:08.281Z,18.088379
2018-08-11T05:27:24.225Z,18.148804
2018-08-11T05:28:40.117Z,17.967529
2018-08-11T05:29:56.078Z,17.907104
2018-08-11T05:31:12.005Z,17.907104
2018-08-11T05:32:27.920Z,17.897034
2018-08-11T05:33:43.911Z,17.907104
2018-08-11T05:34:59.847Z,18.078308
2018-08-11T05:36:15.795Z,17.927246
2018-08-11T05:37:31.695Z,17.85675
2018-08-11T05:38:47.635Z,17.907104
2018-08-11T05:40:03.676Z,17.937317
2018-08-11T05:41:19.619Z,17.937317
2018-08-11T05:42:35.564Z,17.947388
2018-08-11T05:43:51.468Z,17.907104
2018-08-11T05:45:07.347Z,18.017883
2018-08-11T05:46:23.289Z,18.048096
2018-08-11T05:47:39.199Z,17.967529
2018-08-11T05:48:55.186Z,17.927246
2018-08-11T05:50:11.160Z,17.967529
2018-08-11T05:51:28.198Z,18.078308
2018-08-11T05:52:45.114Z,18.148804
2018-08-11T05:54:01.075Z,18.158875
2018-08-11T05:55:17.064Z,18.128662
2018-08-11T05:56:32.974Z,18.118591
2018-08-11T05:57:48.914Z,18.158875
2018-08-11T05:59:04.836Z,18.189087
2018-08-11T06:00:20.745Z,18.189087
2018-08-11T06:01:36.708Z,18.058167
2018-08-11T06:02:52.624Z,18.017883
2018-08-11T06:04:08.581Z,18.088379
2018-08-11T06:05:24.463Z,18.088379
2018-08-11T06:06:40.422Z,18.148804
2018-08-11T06:07:56.430Z,18.118591
2018-08-11T06:09:12.333Z,18.239441
2018-08-11T06:10:28.267Z,18.340149
2018-08-11T06:11:44.357Z,18.370361
2018-08-11T06:13:00.254Z,18.309937
2018-08-11T06:14:16.177Z,18.279724
2018-08-11T06:15:32.108Z,18.410645
2018-08-11T06:16:48.009Z,18.450928
2018-08-11T06:18:03.962Z,18.430786
2018-08-11T06:19:19.848Z,18.420715
2018-08-11T06:20:35.750Z,18.430786
2018-08-11T06:21:51.651Z,18.340149
2018-08-11T06:23:07.587Z,18.370361
2018-08-11T06:24:23.455Z,18.460999
2018-08-11T06:25:39.363Z,18.60199
2018-08-11T06:26:55.289Z,18.672485
2018-08-11T06:28:11.228Z,18.662415
2018-08-11T06:29:27.190Z,18.662415
2018-08-11T06:30:43.114Z,18.60199
2018-08-11T06:31:59.026Z,18.702698
2018-08-11T06:33:15.092Z,18.763123
2018-08-11T06:34:31.032Z,18.712769
2018-08-11T06:35:47.053Z,18.742981
2018-08-11T06:37:03.002Z,18.85376
2018-08-11T06:38:19.022Z,18.924255
2018-08-11T06:39:34.964Z,18.964539
2018-08-11T06:40:51.076Z,19.045105
2018-08-11T06:42:06.859Z,19.045105
2018-08-11T06:43:22.815Z,18.974609
2018-08-11T06:44:38.721Z,18.974609
2018-08-11T06:45:54.636Z,19.035034
2018-08-11T06:47:10.695Z,19.065247
2018-08-11T06:48:26.587Z,19.155884
2018-08-11T06:49:42.516Z,19.256592
2018-08-11T06:50:58.453Z,19.196167
2018-08-11T06:52:14.435Z,19.23645
2018-08-11T06:53:30.416Z,19.256592
2018-08-11T06:54:46.374Z,19.447937
2018-08-11T06:56:02.307Z,19.468079
2018-08-11T06:57:18.249Z,19.417725
2018-08-11T06:58:34.184Z,19.447937
2018-08-11T06:59:50.106Z,19.518433
2018-08-11T07:01:06.061Z,19.588928
2018-08-11T07:02:21.968Z,19.568787
2018-08-11T07:03:37.922Z,19.639282
2018-08-11T07:04:53.895Z,19.639282
2018-08-11T07:06:09.984Z,19.48822
2018-08-11T07:07:25.907Z,19.518433
2018-08-11T07:08:41.844Z,19.598999
2018-08-11T07:09:57.863Z,19.659424
2018-08-11T07:11:13.838Z,19.780273
2018-08-11T07:12:29.822Z,19.820557
2018-08-11T07:13:45.746Z,19.891052
2018-08-11T07:15:01.791Z,20.001831
2018-08-11T07:16:17.734Z,19.931335
2018-08-11T07:17:33.673Z,19.850769
2018-08-11T07:18:49.564Z,19.931335
2018-08-11T07:20:05.513Z,20.11261
2018-08-11T07:21:21.830Z,20.102539
2018-08-11T07:22:37.751Z,20.082397
2018-08-11T07:23:53.664Z,20.142822
2018-08-11T07:25:09.661Z,20.142822
2018-08-11T07:26:25.613Z,20.223389
2018-08-11T07:27:41.535Z,20.142822
2018-08-11T07:28:58.487Z,20.173035
2018-08-11T07:30:14.471Z,20.142822
2018-08-11T07:31:30.412Z,20.142822
2018-08-11T07:32:46.396Z,20.193176
2018-08-11T07:34:02.295Z,19.901123
2018-08-11T07:37:00.133Z,20.072327
2018-08-11T07:38:16.062Z,20.193176
2018-08-11T07:39:31.996Z,20.324097
2018-08-11T07:40:47.926Z,20.374451
2018-08-11T07:42:03.861Z,20.475159
2018-08-11T07:43:19.904Z,20.193176
2018-08-11T07:44:35.963Z,20.072327
2018-08-11T07:45:51.971Z,20.001831
2018-08-11T07:47:07.933Z,20.072327
2018-08-11T07:48:23.869Z,20.263672
2018-08-11T07:49:39.822Z,20.303955
2018-08-11T07:50:55.756Z,20.042114
2018-08-11T07:52:11.742Z,20.032043
2018-08-11T07:53:27.676Z,20.072327
2018-08-11T07:54:43.603Z,20.183105
2018-08-11T07:55:59.689Z,20.273743
2018-08-11T07:57:15.552Z,20.344238
2018-08-11T07:58:31.500Z,20.424805
2018-08-11T07:59:47.460Z,20.485229
2018-08-11T08:01:03.366Z,20.525513
2018-08-11T08:02:19.316Z,20.626221
2018-08-11T08:03:35.231Z,20.74707
2018-08-11T08:04:51.142Z,20.978699
2018-08-11T08:06:07.110Z,20.918274
2018-08-11T08:07:23.111Z,20.777283
2018-08-11T08:10:19.600Z,20.636292
2018-08-11T08:11:35.533Z,20.626221
2018-08-11T08:12:51.471Z,20.636292
2018-08-11T08:14:07.487Z,20.626221
2018-08-11T08:15:23.426Z,20.666504
2018-08-11T08:16:39.342Z,20.626221
2018-08-11T08:17:55.295Z,20.636292
2018-08-11T08:19:11.217Z,20.74707
2018-08-11T08:20:27.117Z,20.797424
2018-08-11T08:21:43.038Z,20.817566
2018-08-11T08:22:58.966Z,20.948486
2018-08-11T08:24:14.969Z,20.767212
2018-08-11T08:25:30.932Z,20.888062
2018-08-11T08:26:46.902Z,21.069336
2018-08-11T08:28:02.830Z,21.260681
2018-08-11T08:29:18.808Z,21.381531
2018-08-11T08:30:34.804Z,21.049194
2018-08-11T08:31:50.781Z,21.190186
2018-08-11T08:33:06.821Z,21.190186
2018-08-11T08:34:22.821Z,21.381531
2018-08-11T08:35:38.749Z,21.321106
2018-08-11T08:36:54.827Z,21.220398
2018-08-11T08:38:10.753Z,21.069336
2018-08-11T08:39:26.729Z,20.888062
2018-08-11T08:40:42.657Z,20.74707
2018-08-11T08:41:58.608Z,20.877991
2018-08-11T08:43:14.503Z,21.170044
2018-08-11T08:44:30.475Z,21.411743
2018-08-11T08:45:46.419Z,21.472168
2018-08-11T08:47:02.418Z,21.603088
2018-08-11T08:48:18.439Z,21.693726
2018-08-11T08:49:34.409Z,21.663513
2018-08-11T08:50:50.384Z,21.562805
2018-08-11T08:52:06.309Z,21.693726
2018-08-11T08:53:22.337Z,21.74408
2018-08-11T08:56:19.010Z,21.260681
2018-08-11T08:57:35.030Z,21.280823
2018-08-11T08:58:50.960Z,21.079407
2018-08-11T09:00:06.857Z,21.079407
2018-08-11T09:01:22.757Z,21.190186
2018-08-11T09:02:38.726Z,21.381531
2018-08-11T09:03:54.637Z,21.482239
2018-08-11T09:05:10.588Z,21.280823
2018-08-11T09:06:26.520Z,21.290894
2018-08-11T09:07:42.470Z,21.321106
2018-08-11T09:08:58.488Z,21.190186
2018-08-11T09:10:14.487Z,21.109619
2018-08-11T09:11:31.704Z,21.079407
2018-08-11T09:12:47.672Z,21.200256
2018-08-11T09:14:03.627Z,21.260681
2018-08-11T09:15:19.563Z,21.149902
2018-08-11T09:16:35.536Z,21.200256
2018-08-11T09:17:51.573Z,21.25061
2018-08-11T09:19:07.609Z,21.230469
2018-08-11T09:20:23.588Z,21.280823
2018-08-11T09:23:24.173Z,21.290894
2018-08-11T09:24:40.144Z,21.50238
2018-08-11T09:25:56.126Z,21.582947
2018-08-11T09:27:12.114Z,21.774292
2018-08-11T09:28:28.232Z,21.774292
2018-08-11T09:29:44.177Z,21.75415
2018-08-11T09:31:00.160Z,21.804504
2018-08-11T09:32:16.246Z,21.804504
2018-08-11T09:33:32.215Z,21.75415
2018-08-11T09:34:48.175Z,21.653442
2018-08-11T09:36:04.223Z,21.834717
2018-08-11T09:37:20.252Z,21.885071
2018-08-11T09:38:36.247Z,22.116699
2018-08-11T09:39:52.388Z,21.834717
2018-08-11T09:41:08.426Z,21.854858
2018-08-11T09:42:24.385Z,22.066345
2018-08-11T09:43:40.522Z,22.136841
2018-08-11T09:44:56.428Z,22.076416
2018-08-11T09:46:12.372Z,21.965637
2018-08-11T09:47:28.318Z,22.187195
2018-08-11T09:48:44.376Z,22.549744
2018-08-11T09:50:00.404Z,22.590027
2018-08-11T09:51:16.339Z,22.489319
2018-08-11T09:52:32.380Z,22.428894
2018-08-11T09:53:48.427Z,22.358398
2018-08-11T09:55:04.395Z,22.338257
2018-08-11T09:56:20.458Z,22.549744
2018-08-11T09:57:36.462Z,22.620239
2018-08-11T09:58:53.405Z,22.710876
2018-08-11T10:00:09.610Z,22.459106
2018-08-11T10:01:25.565Z,22.620239
2018-08-11T10:02:41.503Z,22.469177
2018-08-11T10:03:57.520Z,22.459106
2018-08-11T10:05:13.522Z,22.63031
2018-08-11T10:06:29.399Z,22.741089
2018-08-11T10:07:45.357Z,22.650452
2018-08-11T10:09:01.358Z,22.50946
2018-08-11T10:10:17.349Z,22.610168
2018-08-11T10:11:33.321Z,22.559814
2018-08-11T10:12:49.249Z,22.710876
2018-08-11T10:14:05.221Z,22.741089
2018-08-11T10:15:21.187Z,22.801514
2018-08-11T10:16:37.197Z,22.861938
2018-08-11T10:17:53.137Z,22.982788
2018-08-11T10:19:09.120Z,22.741089
2018-08-11T10:20:25.045Z,22.710876
2018-08-11T10:21:41.003Z,22.731018
2018-08-11T10:22:56.953Z,22.861938
2018-08-11T10:24:12.913Z,23.174133
2018-08-11T10:25:28.875Z,23.164062
2018-08-11T10:26:44.869Z,22.781372
2018-08-11T10:28:00.810Z,22.741089
2018-08-11T10:29:16.755Z,22.962646
2018-08-11T10:30:32.757Z,22.841797
2018-08-11T10:31:48.718Z,22.912292
2018-08-11T10:33:04.639Z,22.992859
2018-08-11T10:34:20.576Z,23.083496
2018-08-11T10:35:36.527Z,23.063354
2018-08-11T10:36:52.532Z,23.184204
2018-08-11T10:38:08.459Z,23.264771
2018-08-11T10:39:24.418Z,23.294983
2018-08-11T10:40:41.411Z,23.184204
2018-08-11T10:41:57.341Z,23.335266
2018-08-11T10:43:13.295Z,23.466187
2018-08-11T10:44:29.225Z,23.395691
2018-08-11T10:45:45.371Z,23.315125
2018-08-11T10:47:01.361Z,23.395691
2018-08-11T10:48:17.275Z,23.50647
2018-08-11T10:49:33.220Z,23.214417
2018-08-11T10:50:49.273Z,23.13385
2018-08-11T10:52:05.207Z,23.435974
2018-08-11T10:53:21.206Z,23.667603
2018-08-11T10:54:37.167Z,23.879089
2018-08-11T10:55:53.287Z,23.879089
2018-08-11T10:57:10.208Z,23.838806
2018-08-11T10:58:26.170Z,23.88916
2018-08-11T10:59:42.162Z,23.999939
2018-08-11T11:00:58.157Z,23.939514
2018-08-11T11:02:14.212Z,23.919373
2018-08-11T11:03:30.190Z,24.14093
2018-08-11T11:04:46.146Z,24.291992
2018-08-11T11:06:02.420Z,24.191284
2018-08-11T11:07:18.367Z,24.060364
2018-08-11T11:08:34.302Z,23.788452
2018-08-11T11:09:50.284Z,23.476257
2018-08-11T11:11:06.292Z,23.315125
2018-08-11T11:12:22.201Z,23.38562
2018-08-11T11:13:38.206Z,23.707886
2018-08-11T11:14:54.232Z,24.01001
2018-08-11T11:16:10.287Z,24.211426
2018-08-11T11:17:26.279Z,24.362488
2018-08-11T11:18:42.283Z,24.281921
2018-08-11T11:19:58.290Z,24.191284
2018-08-11T11:21:14.301Z,24.26178
2018-08-11T11:22:30.286Z,24.211426
2018-08-11T11:23:46.272Z,24.130859
2018-08-11T11:25:02.236Z,24.221497
2018-08-11T11:26:18.269Z,24.382629
2018-08-11T11:27:34.206Z,24.443054
2018-08-11T11:28:50.178Z,24.432983
2018-08-11T11:30:06.176Z,24.51355
2018-08-11T11:31:22.174Z,24.563904
2018-08-11T11:32:38.164Z,24.805603
2018-08-11T11:33:54.240Z,24.956665
2018-08-11T11:35:10.300Z,24.936523
2018-08-11T11:36:26.340Z,24.936523
2018-08-11T11:37:42.335Z,24.855957
2018-08-11T11:38:58.278Z,24.745178
2018-08-11T11:40:14.225Z,24.714966
2018-08-11T11:41:30.181Z,24.714966
2018-08-11T11:42:46.176Z,24.372559
2018-08-11T11:44:02.116Z,24.281921
2018-08-11T11:45:18.110Z,24.473267
2018-08-11T11:46:34.041Z,24.372559
2018-08-11T11:47:50.081Z,24.281921
2018-08-11T11:49:06.062Z,24.533691
2018-08-11T11:50:22.065Z,24.805603
2018-08-11T11:51:38.083Z,24.936523
2018-08-11T11:52:54.025Z,25.007019
2018-08-11T11:54:10.037Z,25.027161
2018-08-11T11:55:26.041Z,25.117798
2018-08-11T11:56:41.977Z,25.007019
2018-08-11T11:57:57.920Z,24.735107
2018-08-11T11:59:13.940Z,24.815674
2018-08-11T12:00:29.909Z,24.916382
2018-08-11T12:01:45.885Z,25.007019
2018-08-11T12:03:01.892Z,25.158081
2018-08-11T12:04:17.914Z,25.309143
2018-08-11T12:05:33.879Z,25.289001
2018-08-11T12:06:49.842Z,25.258789
2018-08-11T12:08:05.833Z,25.429993
2018-08-11T12:09:21.829Z,25.39978
2018-08-11T12:10:37.836Z,25.339355
2018-08-11T12:11:53.852Z,25.178223
2018-08-11T12:13:09.826Z,25.14801
2018-08-11T12:14:25.828Z,25.137939
2018-08-11T12:15:41.826Z,25.137939
2018-08-11T12:16:57.831Z,25.037231
2018-08-11T12:18:13.796Z,25.299072
2018-08-11T12:19:29.887Z,25.540771
2018-08-11T12:20:45.843Z,25.621338
2018-08-11T12:22:01.786Z,25.802612
2018-08-11T12:23:17.755Z,25.963745
2018-08-11T12:24:33.747Z,26.104736
2018-08-11T12:25:49.772Z,26.215515
2018-08-11T12:27:05.775Z,26.044312
2018-08-11T12:28:21.772Z,25.863037
2018-08-11T12:29:37.857Z,25.440063
2018-08-11T12:30:54.075Z,25.550842
2018-08-11T12:32:10.068Z,25.591125
2018-08-11T12:33:26.024Z,25.812683
2018-08-11T12:34:41.990Z,25.52063
2018-08-11T12:35:58.024Z,25.540771
2018-08-11T12:37:13.942Z,25.550842
2018-08-11T12:38:29.937Z,25.409851
2018-08-11T12:39:45.952Z,25.440063
2018-08-11T12:41:01.897Z,25.52063
2018-08-11T12:42:17.851Z,25.409851
2018-08-11T12:43:33.872Z,25.248718
2018-08-11T12:44:49.990Z,25.218506
2018-08-11T12:46:06.032Z,24.936523
2018-08-11T12:47:22.042Z,24.936523
2018-08-11T12:48:38.031Z,24.775391
2018-08-11T12:49:54.067Z,24.835815
2018-08-11T12:51:10.277Z,24.745178
2018-08-11T12:52:26.344Z,24.815674
2018-08-11T12:53:42.493Z,24.835815
2018-08-11T12:54:58.669Z,24.916382
2018-08-11T12:56:14.731Z,24.714966
2018-08-11T12:57:30.725Z,24.694824
2018-08-11T12:58:46.676Z,24.916382
2018-08-11T13:00:02.626Z,24.916382
2018-08-11T13:01:18.645Z,25.037231
2018-08-11T13:02:34.694Z,24.876099
2018-08-11T13:03:50.657Z,24.51355
2018-08-11T13:05:06.619Z,24.412842
2018-08-11T13:06:22.661Z,24.51355
2018-08-11T13:07:38.629Z,24.634399
2018-08-11T13:08:54.628Z,24.886169
2018-08-11T13:10:10.552Z,24.926453
2018-08-11T13:11:26.509Z,24.805603
2018-08-11T13:12:42.464Z,24.835815
2018-08-11T13:13:58.425Z,25.007019
2018-08-11T13:15:14.405Z,25.007019
2018-08-11T13:16:30.431Z,24.966736
2018-08-11T13:17:46.387Z,24.855957
2018-08-11T13:19:02.303Z,24.845886
2018-08-11T13:20:18.277Z,24.886169
2018-08-11T13:21:34.237Z,24.936523
2018-08-11T13:22:50.201Z,25.037231
2018-08-11T13:24:06.132Z,25.087585
2018-08-11T13:25:22.056Z,25.158081
2018-08-11T13:26:38.059Z,25.158081
2018-08-11T13:27:54.000Z,25.137939
2018-08-11T13:29:09.965Z,25.14801
2018-08-11T13:30:25.869Z,24.886169
2018-08-11T13:31:41.869Z,24.76532
2018-08-11T13:32:57.848Z,24.815674
2018-08-11T13:34:13.823Z,24.886169
2018-08-11T13:35:29.807Z,24.986877
2018-08-11T13:36:45.794Z,25.037231
2018-08-11T13:38:01.924Z,24.966736
2018-08-11T13:39:17.904Z,25.158081
2018-08-11T13:40:33.947Z,25.178223
2018-08-11T13:41:49.974Z,25.087585
2018-08-11T13:43:05.971Z,25.238647
2018-08-11T13:44:21.954Z,25.208435
2018-08-11T13:45:37.936Z,25.258789
2018-08-11T13:46:53.886Z,25.339355
2018-08-11T13:48:09.857Z,25.359497
2018-08-11T13:49:25.855Z,25.248718
2018-08-11T13:50:41.838Z,25.188293
2018-08-11T13:51:57.871Z,25.329285
2018-08-11T13:53:13.940Z,25.208435
2018-08-11T13:54:30.058Z,25.137939
2018-08-11T13:55:46.116Z,25.299072
2018-08-11T13:57:02.065Z,25.289001
2018-08-11T13:58:18.067Z,25.258789
2018-08-11T13:59:34.269Z,25.178223
2018-08-11T14:00:51.546Z,25.309143
2018-08-11T14:05:05.590Z,25.369568
2018-08-11T14:06:21.741Z,25.248718
2018-08-11T14:07:37.855Z,25.309143
2018-08-11T14:08:53.731Z,25.440063
2018-08-11T14:10:09.749Z,25.329285
2018-08-11T14:11:25.702Z,25.359497
2018-08-11T14:12:41.917Z,25.429993
2018-08-11T14:13:57.909Z,25.369568
2018-08-11T14:15:14.002Z,25.490417
2018-08-11T14:16:29.987Z,25.490417
2018-08-11T14:17:45.914Z,24.966736
2018-08-11T14:19:01.855Z,25.037231
2018-08-11T14:20:17.887Z,24.855957
2018-08-11T14:21:33.873Z,24.785461
2018-08-11T14:22:49.853Z,24.815674
2018-08-11T14:24:05.783Z,24.76532
2018-08-11T14:25:21.713Z,24.735107
2018-08-11T14:26:37.720Z,24.684753
2018-08-11T14:27:53.701Z,24.664612
2018-08-11T14:29:09.679Z,24.654541
2018-08-11T14:30:25.640Z,24.735107
2018-08-11T14:31:41.596Z,24.76532
2018-08-11T14:32:57.560Z,24.634399
2018-08-11T14:34:13.502Z,24.694824
2018-08-11T14:35:29.473Z,24.845886
2018-08-11T14:36:45.466Z,24.996948
2018-08-11T14:38:01.526Z,24.916382
2018-08-11T14:39:17.503Z,24.76532